createdAt,value
2022-11-19T00:02:20.825Z,99.90
2022-11-19T00:04:49.143Z,99.90
2022-11-19T00:07:18.593Z,99.90
2022-11-19T00:09:46.705Z,99.90
2022-11-19T00:12:32.081Z,99.90
2022-11-19T00:15:00.620Z,99.90
2022-11-19T00:17:29.112Z,99.90
2022-11-19T00:19:57.234Z,99.90
2022-11-19T00:22:26.704Z,99.90
2022-11-19T00:24:54.670Z,99.90
2022-11-19T00:27:22.697Z,99.90
2022-11-19T00:29:50.818Z,99.90
2022-11-19T00:32:42.478Z,99.90
2022-11-19T00:35:11.304Z,99.90
2022-11-19T00:37:41.203Z,99.90
2022-11-19T00:40:12.063Z,99.90
2022-11-19T00:43:00.359Z,99.90
2022-11-19T00:45:28.507Z,99.90
2022-11-19T00:47:56.544Z,99.90
2022-11-19T00:50:24.760Z,99.90
2022-11-19T00:52:54.561Z,99.90
2022-11-19T00:55:22.709Z,99.90
2022-11-19T00:57:50.930Z,99.90
2022-11-19T01:00:19.348Z,99.90
2022-11-19T01:02:47.443Z,99.90
2022-11-19T01:05:15.915Z,99.90
2022-11-19T01:07:44.295Z,99.90
2022-11-19T01:10:14.023Z,99.90
2022-11-19T01:12:56.016Z,99.90
2022-11-19T01:15:24.100Z,99.90
2022-11-19T01:17:52.052Z,99.90
2022-11-19T01:20:20.311Z,99.90
2022-11-19T01:22:48.455Z,99.90
2022-11-19T01:25:18.472Z,99.90
2022-11-19T01:27:46.454Z,99.90
2022-11-19T01:30:14.971Z,99.90
2022-11-19T01:32:43.180Z,99.90
2022-11-19T01:35:11.367Z,99.90
2022-11-19T01:37:39.490Z,99.90
2022-11-19T01:40:08.624Z,99.90
2022-11-19T01:42:54.019Z,99.90
2022-11-19T01:45:32.343Z,99.90
2022-11-19T01:48:04.338Z,99.90
2022-11-19T01:50:35.455Z,99.90
2022-11-19T01:53:03.750Z,99.90
2022-11-19T01:55:32.340Z,99.90
2022-11-19T01:58:04.445Z,99.90
2022-11-19T02:00:32.628Z,99.90
2022-11-19T02:03:00.963Z,99.90
2022-11-19T02:05:29.905Z,99.90
2022-11-19T02:08:00.209Z,99.90
2022-11-19T02:10:38.975Z,99.90
2022-11-19T02:13:20.310Z,99.90
2022-11-19T02:15:55.517Z,99.90
2022-11-19T02:18:43.558Z,99.90
2022-11-19T02:21:33.914Z,99.90
2022-11-19T02:24:24.300Z,99.90
2022-11-19T02:27:32.952Z,99.90
2022-11-19T02:30:13.876Z,99.90
2022-11-19T02:33:04.948Z,99.90
2022-11-19T02:35:49.200Z,99.90
2022-11-19T02:38:27.761Z,99.90
2022-11-19T02:40:59.955Z,99.90
2022-11-19T02:43:34.085Z,99.90
2022-11-19T02:46:09.817Z,99.90
2022-11-19T02:48:44.125Z,99.90
2022-11-19T02:51:14.454Z,99.90
2022-11-19T02:53:42.795Z,99.90
2022-11-19T02:56:17.550Z,99.90
2022-11-19T02:59:13.846Z,99.90
2022-11-19T03:02:03.456Z,99.90
2022-11-19T03:04:33.820Z,99.90
2022-11-19T03:07:07.078Z,99.90
2022-11-19T03:09:40.809Z,99.90
2022-11-19T03:12:17.284Z,99.90
2022-11-19T03:15:12.369Z,99.90
2022-11-19T03:17:54.491Z,99.90
2022-11-19T03:20:28.052Z,99.90
2022-11-19T03:23:01.793Z,99.90
2022-11-19T03:25:35.991Z,99.90
2022-11-19T03:28:09.095Z,99.90
2022-11-19T03:30:39.006Z,99.90
2022-11-19T03:33:14.405Z,99.90
2022-11-19T03:35:46.551Z,99.90
2022-11-19T03:38:17.529Z,99.90
2022-11-19T03:40:48.149Z,99.90
2022-11-19T03:43:19.937Z,99.90
2022-11-19T03:45:49.846Z,99.90
2022-11-19T03:48:23.547Z,99.90
2022-11-19T03:50:55.787Z,99.90
2022-11-19T03:53:24.492Z,99.90
2022-11-19T03:55:55.478Z,99.90
2022-11-19T03:58:26.035Z,99.90
2022-11-19T04:00:55.144Z,99.90
2022-11-19T04:03:24.544Z,99.90
2022-11-19T04:05:52.975Z,99.90
2022-11-19T04:08:21.079Z,99.90
2022-11-19T04:10:49.268Z,99.90
2022-11-19T04:13:17.279Z,99.90
2022-11-19T04:15:45.650Z,99.90
2022-11-19T04:18:13.837Z,99.90
2022-11-19T04:20:44.065Z,99.90
2022-11-19T04:23:12.498Z,99.90
2022-11-19T04:25:41.699Z,99.90
2022-11-19T04:28:10.004Z,99.90
2022-11-19T04:30:38.098Z,99.90
2022-11-19T04:33:06.261Z,99.90
2022-11-19T04:35:34.484Z,99.90
2022-11-19T04:38:04.664Z,99.90
2022-11-19T04:40:32.915Z,99.90
2022-11-19T04:43:01.402Z,99.90
2022-11-19T04:45:29.554Z,99.90
2022-11-19T04:47:57.693Z,99.90
2022-11-19T04:50:26.095Z,99.90
2022-11-19T04:52:54.333Z,99.90
2022-11-19T04:55:23.998Z,99.90
2022-11-19T04:57:53.395Z,99.90
2022-11-19T05:00:21.577Z,99.90
2022-11-19T05:02:49.669Z,99.90
2022-11-19T05:05:18.481Z,99.90
2022-11-19T05:07:46.790Z,99.90
2022-11-19T05:10:15.637Z,99.90
2022-11-19T05:12:45.600Z,99.90
2022-11-19T05:15:13.855Z,99.90
2022-11-19T05:17:41.969Z,99.90
2022-11-19T05:20:11.486Z,99.90
2022-11-19T05:22:39.497Z,99.90
2022-11-19T05:25:08.327Z,99.90
2022-11-19T05:27:36.817Z,99.90
2022-11-19T05:30:08.570Z,99.90
2022-11-19T05:32:37.913Z,99.90
2022-11-19T05:35:06.866Z,99.90
2022-11-19T05:37:35.735Z,99.90
2022-11-19T05:40:03.875Z,99.90
2022-11-19T05:42:33.740Z,99.90
2022-11-19T05:45:02.025Z,99.90
2022-11-19T05:47:32.147Z,99.90
2022-11-19T05:50:00.368Z,99.90
2022-11-19T05:52:28.764Z,99.90
2022-11-19T05:54:57.118Z,99.90
2022-11-19T05:57:25.221Z,99.90
2022-11-19T05:59:53.536Z,99.90
2022-11-19T06:02:21.719Z,99.90
2022-11-19T06:04:51.601Z,99.90
2022-11-19T06:07:20.152Z,99.90
2022-11-19T06:09:48.538Z,99.90
2022-11-19T06:12:18.061Z,99.90
2022-11-19T06:14:46.140Z,99.90
2022-11-19T06:17:14.455Z,99.90
2022-11-19T06:19:42.726Z,99.90
2022-11-19T06:22:12.994Z,99.90
2022-11-19T06:24:41.166Z,99.90
2022-11-19T06:27:09.381Z,99.90
2022-11-19T06:29:37.644Z,99.90
2022-11-19T06:32:06.325Z,99.90
2022-11-19T06:34:34.863Z,99.90
2022-11-19T06:37:03.252Z,99.90
2022-11-19T06:39:33.261Z,99.90
2022-11-19T06:42:22.757Z,99.90
2022-11-19T06:44:50.855Z,99.90
2022-11-19T06:47:19.163Z,99.90
2022-11-19T06:49:47.288Z,99.90
2022-11-19T06:52:15.521Z,99.90
2022-11-19T06:54:45.342Z,99.90
2022-11-19T06:57:13.465Z,99.90
2022-11-19T06:59:41.862Z,99.90
2022-11-19T07:02:12.209Z,99.90
2022-11-19T07:04:40.570Z,99.90
2022-11-19T07:07:10.341Z,99.90
2022-11-19T07:09:40.184Z,99.90
2022-11-19T07:12:10.687Z,99.90
2022-11-19T07:14:38.858Z,99.90
2022-11-19T07:17:07.127Z,99.90
2022-11-19T07:19:35.450Z,99.90
2022-11-19T07:22:03.847Z,99.90
2022-11-19T07:24:32.292Z,99.90
2022-11-19T07:27:00.518Z,99.90
2022-11-19T07:29:30.194Z,99.90
2022-11-19T07:31:58.460Z,99.90
2022-11-19T07:34:26.608Z,99.90
2022-11-19T07:36:54.876Z,99.90
2022-11-19T07:39:23.605Z,99.90
2022-11-19T07:42:09.076Z,99.90
2022-11-19T07:44:38.832Z,99.90
2022-11-19T07:47:08.181Z,99.90
2022-11-19T07:49:36.479Z,99.90
2022-11-19T07:52:04.717Z,99.90
2022-11-19T07:54:32.946Z,99.90
2022-11-19T07:57:00.990Z,99.90
2022-11-19T07:59:29.055Z,99.90
2022-11-19T08:01:58.414Z,99.90
2022-11-19T08:04:29.287Z,99.90
2022-11-19T08:06:57.587Z,99.90
2022-11-19T08:09:25.520Z,99.90
2022-11-19T08:11:53.774Z,99.90
2022-11-19T08:14:21.866Z,99.90
2022-11-19T08:17:07.263Z,99.90
2022-11-19T08:19:36.962Z,99.90
2022-11-19T08:22:04.759Z,99.90
2022-11-19T08:24:33.026Z,99.90
2022-11-19T08:27:02.205Z,99.90
2022-11-19T08:29:30.586Z,99.90
2022-11-19T08:31:59.054Z,99.90
2022-11-19T08:34:27.085Z,99.90
2022-11-19T08:36:56.410Z,99.90
2022-11-19T08:39:24.488Z,99.90
2022-11-19T08:42:10.092Z,99.90
2022-11-19T08:44:38.150Z,99.90
2022-11-19T08:47:06.152Z,99.90
2022-11-19T08:49:34.519Z,99.90
2022-11-19T08:52:04.289Z,99.90
2022-11-19T08:54:32.506Z,99.90
2022-11-19T08:57:00.749Z,99.90
2022-11-19T08:59:29.201Z,99.90
2022-11-19T09:01:57.315Z,99.90
2022-11-19T09:04:25.379Z,99.90
2022-11-19T09:06:53.634Z,99.90
2022-11-19T09:09:24.201Z,99.90
2022-11-19T09:11:52.673Z,99.90
2022-11-19T09:14:21.089Z,99.90
2022-11-19T09:16:49.862Z,99.90
2022-11-19T09:19:18.047Z,99.90
2022-11-19T09:21:46.104Z,99.90
2022-11-19T09:24:14.384Z,99.90
2022-11-19T09:26:47.593Z,99.90
2022-11-19T09:29:18.558Z,99.90
2022-11-19T09:31:46.614Z,99.90
2022-11-19T09:34:14.661Z,99.90
2022-11-19T09:36:42.799Z,99.90
2022-11-19T09:39:11.950Z,99.90
2022-11-19T09:41:57.183Z,99.90
2022-11-19T09:44:42.566Z,99.90
2022-11-19T09:47:24.011Z,99.90
2022-11-19T09:50:01.677Z,99.90
2022-11-19T09:52:33.976Z,99.90
2022-11-19T09:55:03.402Z,99.90
2022-11-19T09:57:37.941Z,99.90
2022-11-19T10:00:09.901Z,99.90
2022-11-19T10:02:41.768Z,99.90
2022-11-19T10:05:15.752Z,99.90
2022-11-19T10:07:53.989Z,99.90
2022-11-19T10:10:35.221Z,99.90
2022-11-19T10:13:17.598Z,99.90
2022-11-19T10:16:07.142Z,99.90
2022-11-19T10:18:46.670Z,99.90
2022-11-19T10:21:20.069Z,99.90
2022-11-19T10:23:52.987Z,99.90
2022-11-19T10:26:28.267Z,99.90
2022-11-19T10:29:00.645Z,99.90
2022-11-19T10:31:36.027Z,99.90
2022-11-19T10:34:08.719Z,99.90
2022-11-19T10:36:43.770Z,99.90
2022-11-19T10:39:22.414Z,99.90
2022-11-19T10:41:59.969Z,99.90
2022-11-19T10:44:41.499Z,99.90
2022-11-19T10:47:16.402Z,99.90
2022-11-19T10:49:45.403Z,99.90
2022-11-19T10:52:27.953Z,99.90
2022-11-19T10:55:00.887Z,99.90
2022-11-19T10:57:32.506Z,99.90
2022-11-19T11:56:30.308Z,99.90
2022-11-19T11:59:22.835Z,99.90
2022-11-19T12:01:58.860Z,99.90
2022-11-19T12:04:27.583Z,99.90
2022-11-19T12:07:06.261Z,99.90
2022-11-19T12:09:43.344Z,99.90
2022-11-19T12:12:18.793Z,99.90
2022-11-19T12:14:56.877Z,99.90
2022-11-19T12:17:37.133Z,99.90
2022-11-19T12:20:20.938Z,99.90
2022-11-19T12:22:59.228Z,99.90
2022-11-19T12:25:35.470Z,98.70
2022-11-19T12:28:21.319Z,97.60
2022-11-19T12:31:05.014Z,99.90
2022-11-19T12:34:02.855Z,97.00
2022-11-19T12:36:41.523Z,90.80
2022-11-19T12:39:22.934Z,87.80
2022-11-19T12:42:03.515Z,90.10
2022-11-19T12:44:45.707Z,92.20
2022-11-19T12:47:30.149Z,89.10
2022-11-19T12:50:17.234Z,90.00
2022-11-19T12:53:08.798Z,84.80
2022-11-19T12:55:43.788Z,79.80
2022-11-19T12:58:23.346Z,83.90
2022-11-19T13:00:56.245Z,91.30
2022-11-19T13:03:38.498Z,87.50
2022-11-19T13:06:16.729Z,88.80
2022-11-19T13:08:53.181Z,94.10
2022-11-19T13:11:24.891Z,92.40
2022-11-19T13:13:58.511Z,92.30
2022-11-19T13:16:28.767Z,93.50
2022-11-19T13:19:10.339Z,90.50
2022-11-19T13:21:45.454Z,94.00
2022-11-19T13:24:25.459Z,90.90
2022-11-19T13:26:56.323Z,92.50
2022-11-19T13:29:42.955Z,92.80
2022-11-19T13:32:39.125Z,94.40
2022-11-19T13:35:21.884Z,93.00
2022-11-19T13:37:58.736Z,95.50
2022-11-19T13:40:31.300Z,92.90
2022-11-19T13:43:32.952Z,95.10
2022-11-19T13:46:09.514Z,97.00
2022-11-19T13:48:43.115Z,95.80
2022-11-19T13:51:21.891Z,96.00
2022-11-19T13:53:52.274Z,96.60
2022-11-19T13:56:22.965Z,98.00
2022-11-19T13:58:53.854Z,96.40
2022-11-19T14:01:45.325Z,96.60
2022-11-19T14:04:37.173Z,95.80
2022-11-19T14:07:33.783Z,96.50
2022-11-19T14:10:11.997Z,97.40
2022-11-19T14:13:09.024Z,97.00
2022-11-19T14:16:19.458Z,97.80
2022-11-19T14:19:08.070Z,99.50
2022-11-19T14:22:11.376Z,99.90
2022-11-19T14:25:22.701Z,99.90
2022-11-19T14:27:51.607Z,99.90
2022-11-19T14:30:22.211Z,99.90
2022-11-19T14:32:55.337Z,99.90
2022-11-19T14:35:52.114Z,99.90
2022-11-19T14:39:05.970Z,99.90
2022-11-19T14:42:24.359Z,99.90
2022-11-19T15:34:03.789Z,99.90
2022-11-19T15:37:50.415Z,99.90
2022-11-19T15:51:11.095Z,99.90
2022-11-19T15:54:26.665Z,99.90
2022-11-19T15:57:06.704Z,99.90
2022-11-19T15:59:46.999Z,99.90
2022-11-19T16:02:23.835Z,99.90
2022-11-19T16:04:57.341Z,99.90
2022-11-19T16:07:30.845Z,99.90
2022-11-19T16:10:04.930Z,99.90
2022-11-19T16:12:50.735Z,99.90
2022-11-19T16:15:39.729Z,99.90
2022-11-19T16:18:19.339Z,99.90
2022-11-19T16:20:48.949Z,99.90
2022-11-19T16:23:21.805Z,99.90
2022-11-19T16:25:56.382Z,99.90
2022-11-19T16:28:31.441Z,99.90
2022-11-19T16:31:02.363Z,99.90
2022-11-19T16:33:34.729Z,99.90
2022-11-19T16:36:14.743Z,99.90
2022-11-19T16:38:46.935Z,99.90
2022-11-19T16:41:38.428Z,99.90
2022-11-19T16:44:23.119Z,99.90
2022-11-19T16:46:52.277Z,99.90
2022-11-19T16:49:32.934Z,99.90
2022-11-19T16:52:05.456Z,99.90
2022-11-19T16:54:48.602Z,99.90
2022-11-19T16:57:21.885Z,99.90
2022-11-19T16:59:53.118Z,99.90
2022-11-19T17:02:24.999Z,99.90
2022-11-19T17:04:55.500Z,99.90
2022-11-19T17:07:24.811Z,99.90
2022-11-19T17:10:10.561Z,99.90
2022-11-19T17:12:51.548Z,99.90
2022-11-19T17:15:38.557Z,99.90
2022-11-19T17:18:17.107Z,99.90
2022-11-19T17:20:53.567Z,99.90
2022-11-19T17:23:23.542Z,99.90
2022-11-19T17:25:52.829Z,99.90
2022-11-19T17:28:32.078Z,99.90
2022-11-19T17:31:01.537Z,99.90
2022-11-19T17:33:35.491Z,99.90
2022-11-19T17:36:05.551Z,99.90
2022-11-19T17:38:34.576Z,99.90
2022-11-19T17:41:05.064Z,99.90
2022-11-19T17:43:55.578Z,99.90
2022-11-19T17:46:26.418Z,99.90
2022-11-19T17:48:54.960Z,99.90
2022-11-19T17:51:24.651Z,99.90
2022-11-19T17:53:53.466Z,99.90
2022-11-19T17:56:26.259Z,99.90
2022-11-19T17:58:59.677Z,99.90
2022-11-19T18:01:31.645Z,99.90
2022-11-19T18:04:04.422Z,99.90
2022-11-19T18:06:33.782Z,99.90
2022-11-19T18:09:02.663Z,99.90
2022-11-19T18:11:31.291Z,99.90
2022-11-19T18:14:05.506Z,99.90
2022-11-19T18:16:35.212Z,99.90
2022-11-19T18:19:03.276Z,99.90
2022-11-19T18:21:31.571Z,99.90
2022-11-19T18:24:00.371Z,99.90
2022-11-19T18:26:28.980Z,99.90
2022-11-19T18:28:57.921Z,99.90
2022-11-19T18:31:29.585Z,99.90
2022-11-19T18:33:58.355Z,99.90
2022-11-19T18:36:27.953Z,99.90
2022-11-19T18:38:56.673Z,99.90
2022-11-19T18:41:25.384Z,99.90
2022-11-19T18:44:11.712Z,99.90
2022-11-19T18:46:41.403Z,99.90
2022-11-19T18:49:09.716Z,99.90
2022-11-19T18:51:39.126Z,99.90
2022-11-19T18:54:07.839Z,99.90
2022-11-19T18:56:38.345Z,99.90
2022-11-19T18:59:07.797Z,99.90
2022-11-19T19:01:37.207Z,99.90
2022-11-19T19:04:07.489Z,99.90
2022-11-19T19:06:38.367Z,99.90
2022-11-19T19:09:08.235Z,99.90
2022-11-19T19:11:53.780Z,99.90
2022-11-19T19:14:22.205Z,99.90
2022-11-19T19:16:51.633Z,99.90
2022-11-19T19:19:21.733Z,99.90
2022-11-19T19:21:52.089Z,99.90
2022-11-19T19:24:20.905Z,99.90
2022-11-19T19:26:50.680Z,99.90
2022-11-19T19:29:18.909Z,99.90
2022-11-19T19:31:47.338Z,99.90
2022-11-19T19:34:15.747Z,99.90
2022-11-19T19:36:51.841Z,99.90
2022-11-19T19:39:24.841Z,99.90
2022-11-19T19:41:54.545Z,99.90
2022-11-19T19:44:23.020Z,99.90
2022-11-19T19:46:51.432Z,99.90
2022-11-19T19:49:20.762Z,99.90
2022-11-19T19:51:52.921Z,99.90
2022-11-19T19:54:21.413Z,99.90
2022-11-19T19:56:49.753Z,99.90
2022-11-19T19:59:18.839Z,99.90
2022-11-19T20:01:50.805Z,99.90
2022-11-19T20:04:19.847Z,99.90
2022-11-19T20:06:49.048Z,99.90
2022-11-19T20:09:19.245Z,99.90
2022-11-19T20:11:48.466Z,99.90
2022-11-19T20:14:16.767Z,99.90
2022-11-19T20:16:47.088Z,99.90
2022-11-19T20:19:17.594Z,99.90
2022-11-19T20:21:47.188Z,99.90
2022-11-19T20:24:16.543Z,99.90
2022-11-19T20:26:46.182Z,99.90
2022-11-19T20:29:14.770Z,99.90
2022-11-19T20:31:48.622Z,99.90
2022-11-19T20:34:17.937Z,99.90
2022-11-19T20:36:47.743Z,99.90
2022-11-19T20:39:16.056Z,99.90
2022-11-19T20:42:04.635Z,99.90
2022-11-19T20:44:35.937Z,99.90
2022-11-19T20:47:05.226Z,99.90
2022-11-19T20:49:35.788Z,99.90
2022-11-19T20:52:04.400Z,99.90
2022-11-19T20:54:33.696Z,99.90
2022-11-19T20:57:03.896Z,99.90
2022-11-19T20:59:32.466Z,99.90
2022-11-19T21:02:01.318Z,99.90
2022-11-19T21:04:44.144Z,99.90
2022-11-19T21:07:16.253Z,99.90
2022-11-19T21:09:45.215Z,99.90
2022-11-19T21:13:02.311Z,99.90
2022-11-19T21:15:37.088Z,99.90
2022-11-19T21:18:10.548Z,99.90
2022-11-19T21:20:40.028Z,99.90
2022-11-19T21:23:09.981Z,99.90
2022-11-19T21:25:38.479Z,99.90
2022-11-19T21:28:08.340Z,99.90
2022-11-19T21:30:42.642Z,99.90
2022-11-19T21:33:14.653Z,99.90
2022-11-19T21:35:43.148Z,99.90
2022-11-19T21:38:12.435Z,99.90
2022-11-19T21:40:42.876Z,99.90
2022-11-19T21:43:11.315Z,99.90
2022-11-19T21:45:50.235Z,99.90
2022-11-19T21:48:31.103Z,99.90
2022-11-19T21:51:00.052Z,99.90
2022-11-19T21:53:30.154Z,99.90
2022-11-19T21:55:58.462Z,99.90
2022-11-19T21:58:31.605Z,99.90
2022-11-19T22:01:04.921Z,99.90
2022-11-19T22:03:36.297Z,99.90
2022-11-19T22:06:06.716Z,99.90
2022-11-19T22:08:36.873Z,99.90
2022-11-19T22:11:26.686Z,99.90
2022-11-19T22:13:55.522Z,99.90
2022-11-19T22:16:26.119Z,99.90
2022-11-19T22:18:54.873Z,99.90
2022-11-19T22:21:25.486Z,99.90
2022-11-19T22:23:56.543Z,99.90
2022-11-19T22:26:24.781Z,99.90
2022-11-19T22:28:53.529Z,99.90
2022-11-19T22:31:22.106Z,99.90
2022-11-19T22:33:52.731Z,99.90
2022-11-19T22:36:22.623Z,99.90
2022-11-19T22:38:54.593Z,99.90
2022-11-19T22:41:23.342Z,99.90
2022-11-19T22:43:52.221Z,99.90
2022-11-19T22:46:23.546Z,99.90
2022-11-19T22:48:53.314Z,99.90
2022-11-19T22:51:23.088Z,99.90
2022-11-19T22:53:55.287Z,99.90
2022-11-19T22:56:31.364Z,99.90
2022-11-19T22:59:02.348Z,99.90
2022-11-19T23:01:33.574Z,99.90
2022-11-19T23:04:07.001Z,99.90
2022-11-19T23:06:36.353Z,99.90
2022-11-19T23:09:07.052Z,99.90
2022-11-19T23:11:53.199Z,99.90
2022-11-19T23:14:22.279Z,99.90
2022-11-19T23:16:50.800Z,99.90
2022-11-19T23:19:21.365Z,99.90
2022-11-19T23:21:50.240Z,99.90
2022-11-19T23:24:18.553Z,99.90
2022-11-19T23:26:47.282Z,99.90
2022-11-19T23:29:16.289Z,99.90
2022-11-19T23:31:44.633Z,99.90
2022-11-19T23:34:13.141Z,99.90
2022-11-19T23:36:43.096Z,99.90
2022-11-19T23:39:19.122Z,99.90
2022-11-19T23:41:48.521Z,99.90
2022-11-19T23:44:17.412Z,99.90
2022-11-19T23:46:46.593Z,99.90
2022-11-19T23:49:15.538Z,99.90
2022-11-19T23:51:45.832Z,99.90
2022-11-19T23:54:15.049Z,99.90
2022-11-19T23:56:43.486Z,99.90
2022-11-19T23:59:15.471Z,99.90
